Time;durP1;ratioP1;P1;durP2;ratioP2;P2;SDS_P1;SDS_P2;PMS_P1;PMS_P2;Temp;Humidity;BMP_temperature;BMP_pressure;BME280_temperature;BME280_humidity;BME280_pressure;Samples;Min_cycle;Max_cycle;Signal;HPM_P1;HPM_P2
2023/08/02 00:02:44;;;;;;;2.30;2.10;;;;;;;28.48;48.26;101888.66;21077152;28;20035;-75
2023/08/02 00:12:48;;;;;;;2.38;2.13;;;;;;;28.49;48.17;101912.84;21092354;28;20035;-76
2023/08/02 00:22:50;;;;;;;2.33;2.13;;;;;;;28.49;48.24;101930.56;21089907;28;20052;-76
2023/08/02 00:32:54;;;;;;;2.08;1.88;;;;;;;28.52;47.98;101943.19;21089257;28;20062;-75
2023/08/02 00:42:55;;;;;;;2.38;2.03;;;;;;;28.52;48.16;101946.03;21070851;28;20044;-76
2023/08/02 00:52:58;;;;;;;2.53;2.33;;;;;;;28.47;48.21;101944.13;21102130;28;20032;-75
2023/08/02 01:02:59;;;;;;;2.30;2.10;;;;;;;28.54;48.05;101966.25;21073232;28;20040;-75
2023/08/02 01:13:04;;;;;;;2.30;2.10;;;;;;;28.54;48.06;101992.41;21087170;28;20031;-75
2023/08/02 01:23:05;;;;;;;1.80;1.70;;;;;;;28.52;48.01;101999.50;21085807;28;20048;-77
2023/08/02 01:33:07;;;;;;;2.63;2.30;;;;;;;28.52;47.81;102007.97;21086189;28;20024;-76
2023/08/02 01:43:09;;;;;;;2.55;2.35;;;;;;;28.48;47.81;102006.91;21087273;28;20059;-74
2023/08/02 01:53:10;;;;;;;2.35;2.00;;;;;;;28.48;47.93;101998.47;21083360;28;20032;-74
2023/08/02 02:03:12;;;;;;;2.17;1.92;;;;;;;28.59;47.89;102039.38;21065317;28;20492;-74
2023/08/02 02:13:13;;;;;;;2.13;1.92;;;;;;;28.57;47.81;102038.84;21082993;28;20070;-76
2023/08/02 02:23:14;;;;;;;2.10;1.90;;;;;;;28.58;47.96;102049.78;21108503;28;20044;-75
2023/08/02 02:33:16;;;;;;;2.05;1.77;;;;;;;28.39;47.99;102026.47;21111662;28;20150;-75
2023/08/02 02:43:17;;;;;;;2.17;1.98;;;;;;;28.60;47.75;102063.59;21080049;28;20044;-75
2023/08/02 02:53:20;;;;;;;1.88;1.77;;;;;;;28.43;47.94;102043.59;21077344;28;20086;-74
2023/08/02 03:03:22;;;;;;;2.00;1.50;;;;;;;28.59;48.14;102068.38;21077760;28;20471;-74
2023/08/02 03:13:23;;;;;;;1.90;1.70;;;;;;;28.45;48.09;102052.56;21077558;28;20036;-74
2023/08/02 03:23:25;;;;;;;1.92;1.80;;;;;;;28.60;47.97;102074.84;21059007;28;20097;-76
2023/08/02 03:33:26;;;;;;;1.90;1.77;;;;;;;28.61;48.09;102079.34;21078539;28;20028;-76
2023/08/02 03:43:27;;;;;;;1.45;1.35;;;;;;;28.62;47.93;102087.47;21087686;28;20055;-75
2023/08/02 03:53:30;;;;;;;1.85;1.63;;;;;;;28.49;48.16;102074.16;21092860;28;20039;-75
2023/08/02 04:03:31;;;;;;;2.10;1.90;;;;;;;28.64;47.83;102084.38;21093163;28;20027;-74
2023/08/02 04:13:33;;;;;;;2.10;1.80;;;;;;;28.61;47.91;102079.34;21091779;28;20365;-73
2023/08/02 04:23:34;;;;;;;1.83;1.73;;;;;;;28.52;48.15;102070.75;21090534;28;20376;-74
2023/08/02 04:33:36;;;;;;;2.42;1.95;;;;;;;28.47;48.02;102067.19;21090269;28;20035;-74
2023/08/02 04:43:40;;;;;;;2.22;2.03;;;;;;;28.66;47.70;102087.69;21088327;28;20044;-74
2023/08/02 04:53:47;;;;;;;2.47;2.05;;;;;;;28.61;47.99;102090.59;21086314;28;20383;-76
2023/08/02 05:03:48;;;;;;;1.60;1.50;;;;;;;28.63;47.87;102089.13;21088037;28;20028;-75
2023/08/02 05:13:50;;;;;;;2.17;1.98;;;;;;;28.43;47.90;102060.47;21085411;28;20028;-76
2023/08/02 05:23:54;;;;;;;2.08;1.80;;;;;;;28.61;47.73;102096.25;21086310;28;20048;-75
2023/08/02 05:33:56;;;;;;;2.17;1.98;;;;;;;28.64;47.62;102095.63;21085962;28;20450;-75
2023/08/02 05:43:57;;;;;;;2.00;1.83;;;;;;;28.52;48.06;102087.63;21083778;28;20425;-75
2023/08/02 05:53:58;;;;;;;1.90;1.70;;;;;;;28.58;47.65;102077.13;21065679;28;20044;-75
2023/08/02 06:04:00;;;;;;;1.73;1.63;;;;;;;28.61;47.63;102071.72;21082290;28;20044;-75
2023/08/02 06:14:01;;;;;;;2.10;1.90;;;;;;;28.55;47.81;102058.88;21081787;28;20032;-74
2023/08/02 06:24:03;;;;;;;2.10;1.90;;;;;;;28.53;47.63;102057.50;21080993;28;20044;-75
2023/08/02 06:34:04;;;;;;;1.70;1.60;;;;;;;28.62;47.38;102064.09;21081003;28;20040;-75
2023/08/02 06:44:07;;;;;;;1.67;1.58;;;;;;;28.54;47.40;102061.97;21079558;28;20047;-75
2023/08/02 06:54:08;;;;;;;1.98;1.58;;;;;;;28.53;47.35;102060.31;21078400;28;20092;-75
2023/08/02 07:04:09;;;;;;;1.65;1.55;;;;;;;28.53;47.42;102065.94;21078875;28;20113;-75
2023/08/02 07:14:11;;;;;;;1.65;1.55;;;;;;;28.46;46.97;102043.81;21077356;28;20035;-75
2023/08/02 07:24:12;;;;;;;1.45;1.35;;;;;;;28.55;47.07;102053.25;21076856;28;20051;-74
2023/08/02 07:34:13;;;;;;;1.70;1.60;;;;;;;28.50;47.04;102049.66;21076398;28;20341;-75
2023/08/02 07:44:15;;;;;;;1.60;1.50;;;;;;;28.53;47.03;102054.69;21076498;28;20036;-75
2023/08/02 07:54:16;;;;;;;1.55;1.45;;;;;;;28.54;46.85;102062.81;21076602;28;20035;-74
2023/08/02 08:04:17;;;;;;;1.92;1.63;;;;;;;28.56;46.84;102060.53;21073178;28;20044;-74
2023/08/02 08:14:20;;;;;;;2.60;1.50;;;;;;;28.43;46.68;102054.84;21075881;28;20525;-74
2023/08/02 08:24:21;;;;;;;1.65;1.50;;;;;;;28.49;46.71;102070.50;21077140;28;20044;-75
2023/08/02 08:34:23;;;;;;;1.83;1.65;;;;;;;28.50;46.58;102078.69;21090416;28;20433;-73
2023/08/02 08:44:24;;;;;;;1.60;1.50;;;;;;;28.49;46.58;102082.59;21089963;28;20105;-76
2023/08/02 08:54:28;;;;;;;1.58;1.48;;;;;;;28.21;46.27;102036.56;21086991;28;20090;-75
2023/08/02 09:04:30;;;;;;;1.60;1.50;;;;;;;28.35;46.16;102071.28;21087934;28;20036;-77
2023/08/02 09:14:32;;;;;;;1.35;1.25;;;;;;;28.45;46.24;102091.97;21088188;28;20028;-76
2023/08/02 09:24:37;;;;;;;1.48;1.38;;;;;;;28.42;45.87;102103.88;21087155;28;20043;-75
2023/08/02 09:34:45;;;;;;;1.50;1.30;;;;;;;28.41;46.11;102107.78;21086226;28;20125;-74
2023/08/02 09:45:04;;;;;;;1.02;0.95;;;;;;;28.41;45.91;102119.94;21085025;28;20032;-75
2023/08/02 09:55:07;;;;;;;1.30;1.20;;;;;;;28.25;45.90;102105.19;21084894;28;20046;-78
2023/08/02 10:05:15;;;;;;;1.50;1.33;;;;;;;28.39;45.70;102124.16;21082031;28;20445;-76
2023/08/02 10:15:17;;;;;;;1.50;1.40;;;;;;;28.36;45.75;102134.91;21083931;28;20039;-76
2023/08/02 10:25:20;;;;;;;1.27;1.17;;;;;;;28.37;45.63;102158.25;21083759;28;20047;-74
2023/08/02 10:35:57;;;;;;;1.60;1.50;;;;;;;28.29;45.94;102164.53;21091926;28;20031;-75
2023/08/02 10:46:19;;;;;;;1.45;1.35;;;;;;;28.17;45.93;102159.31;21081586;28;20467;-77
2023/08/02 10:56:20;;;;;;;1.20;1.10;;;;;;;28.02;45.45;102122.97;21085003;28;20058;-75
2023/08/02 11:06:27;;;;;;;1.48;1.38;;;;;;;28.34;45.43;102190.66;21086817;28;20101;-76
2023/08/02 11:16:29;;;;;;;1.63;1.53;;;;;;;28.29;45.60;102192.69;21077838;28;20023;-76
2023/08/02 11:26:31;;;;;;;1.30;1.20;;;;;;;28.18;45.58;102194.81;21076669;28;20105;-76
2023/08/02 11:36:33;;;;;;;1.35;1.20;;;;;;;28.31;45.58;102239.06;21076719;28;20028;-77
2023/08/02 11:46:35;;;;;;;1.40;1.30;;;;;;;28.33;45.83;102252.88;21076128;28;20028;-76
2023/08/02 11:56:36;;;;;;;2.08;1.88;;;;;;;28.31;45.81;102244.72;21076188;28;20133;-75
2023/08/02 12:06:52;;;;;;;1.65;1.42;;;;;;;28.28;45.72;102239.69;21090250;28;20036;-76
2023/08/02 12:16:54;;;;;;;1.88;1.73;;;;;;;28.17;45.56;102221.25;21091502;28;20093;-76
2023/08/02 12:26:55;;;;;;;1.60;1.50;;;;;;;28.31;45.64;102239.06;21073476;28;20044;-78
2023/08/02 12:36:59;;;;;;;1.48;1.38;;;;;;;28.21;45.75;102221.50;21089557;28;20387;-76
2023/08/02 12:47:00;;;;;;;1.88;1.60;;;;;;;28.28;45.57;102234.06;21090019;28;20058;-76
2023/08/02 12:57:01;;;;;;;1.95;1.80;;;;;;;28.35;45.46;102236.53;21089679;28;20040;-75
2023/08/02 13:07:03;;;;;;;2.00;1.70;;;;;;;28.24;45.53;102255.50;21088369;28;20081;-76
2023/08/02 13:17:05;;;;;;;2.45;1.80;;;;;;;28.25;45.72;102233.81;21086003;28;20364;-77
2023/08/02 13:27:06;;;;;;;1.90;1.70;;;;;;;28.31;45.73;102221.34;21068720;28;20102;-76
2023/08/02 13:37:08;;;;;;;2.20;1.85;;;;;;;28.29;45.91;102230.09;21087277;28;20552;-77
2023/08/02 13:47:09;;;;;;;2.55;2.08;;;;;;;28.30;45.83;102211.25;21066041;28;20044;-77
2023/08/02 13:57:13;;;;;;;2.20;2.00;;;;;;;28.31;45.86;102191.22;21084593;28;20029;-77
2023/08/02 14:07:14;;;;;;;2.70;1.67;;;;;;;28.29;46.04;102201.97;21083587;28;20040;-77
2023/08/02 14:17:16;;;;;;;1.60;1.50;;;;;;;28.30;45.67;102186.75;21082623;28;20445;-77
2023/08/02 14:27:17;;;;;;;2.13;1.83;;;;;;;28.28;45.89;102193.81;21082201;28;20117;-78
2023/08/02 14:37:18;;;;;;;1.98;1.77;;;;;;;28.37;45.65;102214.56;21080953;28;20117;-76
2023/08/02 14:47:20;;;;;;;2.33;1.70;;;;;;;28.30;45.88;102214.06;21080142;28;20499;-75
2023/08/02 14:57:22;;;;;;;2.10;1.70;;;;;;;28.12;45.77;102204.44;21080157;28;20035;-77
2023/08/02 15:07:23;;;;;;;2.20;2.00;;;;;;;28.24;45.80;102227.38;21078217;28;20043;-76
2023/08/02 15:17:25;;;;;;;2.42;2.03;;;;;;;28.15;45.80;102217.06;21079417;28;20028;-77
2023/08/02 15:27:29;;;;;;;1.98;1.77;;;;;;;28.25;45.75;102223.41;21078073;28;20048;-77
2023/08/02 15:37:34;;;;;;;2.30;1.95;;;;;;;28.34;45.70;102227.25;21087261;28;20479;-78
2023/08/02 15:47:35;;;;;;;2.28;1.90;;;;;;;28.36;45.69;102222.19;21075696;28;20036;-78
2023/08/02 15:57:36;;;;;;;1.83;1.73;;;;;;;28.36;46.06;102221.31;21080356;28;20039;-76
2023/08/02 16:07:40;;;;;;;2.85;2.10;;;;;;;28.25;45.94;102195.25;21075697;28;20121;-79
2023/08/02 16:17:44;;;;;;;1.95;1.73;;;;;;;28.26;45.84;102193.28;21075728;28;20048;-76
2023/08/02 16:28:01;;;;;;;2.63;1.90;;;;;;;28.23;45.91;102193.91;21073770;28;20094;-78
2023/08/02 16:38:03;;;;;;;2.20;1.57;;;;;;;28.44;45.89;102226.28;21075590;28;20036;-76
2023/08/02 16:48:04;;;;;;;2.22;2.03;;;;;;;28.45;45.68;102210.22;21081632;28;20121;-74
2023/08/02 16:58:09;;;;;;;2.15;1.63;;;;;;;28.34;45.91;102181.34;21089431;28;20044;-75
2023/08/02 17:08:11;;;;;;;2.00;1.80;;;;;;;28.43;45.88;102184.38;21089703;28;20032;-75
2023/08/02 17:18:12;;;;;;;1.95;1.77;;;;;;;28.46;45.85;102186.59;21088187;28;20028;-77
2023/08/02 17:28:14;;;;;;;2.35;1.95;;;;;;;28.42;45.63;102161.00;21053221;28;20048;-78
2023/08/02 17:38:18;;;;;;;2.00;1.80;;;;;;;28.36;45.51;102143.34;21086170;28;20032;-77
2023/08/02 17:48:20;;;;;;;1.75;1.63;;;;;;;28.18;45.50;102104.75;21085303;28;20097;-75
2023/08/02 17:58:21;;;;;;;2.55;2.33;;;;;;;28.49;45.70;102150.19;21079251;28;20062;-79
2023/08/02 18:08:22;;;;;;;2.03;1.83;;;;;;;28.60;45.55;102148.91;21085263;28;20044;-77
2023/08/02 18:18:24;;;;;;;2.13;1.85;;;;;;;28.58;45.40;102130.63;21041306;28;20024;-78
2023/08/02 18:28:30;;;;;;;3.30;1.60;;;;;;;28.59;45.70;102126.66;21076509;28;20053;-75
2023/08/02 18:38:35;;;;;;;8.77;2.10;;;;;;;28.52;45.97;102126.22;21017035;28;20483;-77
2023/08/02 18:48:36;;;;;;;16.40;3.15;;;;;;;28.54;45.87;102113.50;21046851;28;20097;-77
2023/08/02 18:58:38;;;;;;;14.05;3.05;;;;;;;28.52;46.02;102107.34;20996239;28;20024;-78
2023/08/02 19:08:46;;;;;;;16.48;2.40;;;;;;;28.57;45.71;102100.81;20995827;28;20052;-78
2023/08/02 19:18:47;;;;;;;10.70;3.35;;;;;;;28.53;45.80;102088.47;21076207;28;20048;-77
2023/08/02 19:28:52;;;;;;;13.93;2.55;;;;;;;28.56;45.76;102082.25;21046637;28;20369;-76
2023/08/02 19:38:53;;;;;;;10.13;3.05;;;;;;;28.57;46.00;102072.63;21040480;28;20098;-75
2023/08/02 19:48:54;;;;;;;9.40;2.83;;;;;;;28.56;45.86;102037.19;21048282;28;20044;-75
2023/08/02 19:58:59;;;;;;;8.30;3.05;;;;;;;28.54;45.75;102047.91;21071761;28;20024;-78
2023/08/02 20:09:01;;;;;;;4.00;2.40;;;;;;;28.56;46.10;102048.44;21066343;28;20044;-74
2023/08/02 20:19:02;;;;;;;9.10;2.58;;;;;;;28.56;46.14;102021.13;21075883;28;20070;-76
2023/08/02 20:29:04;;;;;;;13.85;3.30;;;;;;;28.58;46.54;102012.34;21058975;28;20048;-73
2023/08/02 20:39:16;;;;;;;90.75;10.52;;;;;;;28.52;47.21;101991.06;21034257;28;20037;-73
2023/08/02 20:49:18;;;;;;;125.25;16.58;;;;;;;28.24;46.95;101996.56;21066959;28;20085;-72
2023/08/02 20:59:25;;;;;;;219.98;22.85;;;;;;;27.68;46.67;101988.09;21084659;28;20044;-72
2023/08/02 21:09:26;;;;;;;384.08;39.38;;;;;;;27.35;47.13;101996.38;21080794;28;20048;-73
2023/08/02 21:19:34;;;;;;;448.35;50.03;;;;;;;26.88;46.78;101981.16;21082764;28;20032;-73
2023/08/02 21:29:37;;;;;;;376.42;44.78;;;;;;;26.78;46.99;101979.28;21082022;28;20102;-72
2023/08/02 21:39:43;;;;;;;320.35;37.35;;;;;;;26.74;47.00;101992.22;21079639;28;20036;-71
2023/08/02 21:49:50;;;;;;;228.80;29.97;;;;;;;26.43;46.76;101954.31;21081079;28;20078;-72
2023/08/02 21:59:57;;;;;;;210.75;28.27;;;;;;;26.45;47.26;101971.75;21079577;28;20097;-73
2023/08/02 22:10:00;;;;;;;154.45;23.48;;;;;;;26.27;46.96;101951.66;21029865;28;20564;-72
2023/08/02 22:20:01;;;;;;;136.23;20.80;;;;;;;26.09;47.01;101952.34;21059650;28;20553;-72
2023/08/02 22:30:08;;;;;;;114.88;18.95;;;;;;;26.15;46.82;101976.44;21053850;28;20106;-73
2023/08/02 22:40:09;;;;;;;;;;;;;;;26.04;46.80;101977.66;21071573;28;20105;-72
2023/08/02 22:50:11;;;;;;;144.90;20.85;;;;;;;25.99;45.78;101991.72;21074733;28;20429;-72
2023/08/02 23:00:22;;;;;;;141.88;19.98;;;;;;;25.87;47.13;101991.22;21076226;28;20040;-74
2023/08/02 23:10:26;;;;;;;171.80;24.95;;;;;;;25.81;47.32;101994.06;21072241;28;20062;-72
2023/08/02 23:20:42;;;;;;;162.40;21.75;;;;;;;25.75;47.39;101983.97;21027182;28;20044;-73
2023/08/02 23:30:47;;;;;;;136.68;20.83;;;;;;;25.71;47.42;102002.50;21073353;28;20040;-77
2023/08/02 23:40:48;;;;;;;105.82;17.83;;;;;;;25.67;47.32;102018.22;21075215;28;20105;-76
2023/08/02 23:50:49;;;;;;;94.53;16.30;;;;;;;25.79;52.23;102010.31;21074776;28;20036;-76
